Welcome to Des Moines Iowa Weather. I am an independent private personal weather station on the Northwest Side of Des Moines, Iowa. Just East of Windsor Heights and just West of Glendale . This site is also mobile friendly.

There are no active watches, warnings or advisories


Visit our other weather sites:

Historical Data

Weather Station Setup



Weather Underground History page Text

Daily Summary for July 14, 2017 Units:  English    Metric   Both
« Previous Day
Next Day »
Daily Weekly Monthly Yearly Custom
  High: Low: Average:
Temperature: 84.3 °F 62.2 °F 73.4 °F
Dew Point: 68.0 °F 59.0 °F 62.7 °F
Humidity: 88 % 55 % 70 %
Wind Speed: 5.0 mph 0.0 mph 0.5 mph
Wind Gust: 8.0 mph - -
Wind:- - ESE
Pressure: 30.15 in 30.06 in -
Precipitation: 0.00 in    
Historical Graphs
 
 
Tabular Data for July 14, 2017
Time Temperature Dew Point Pressure Wind Wind Speed Wind Gust Humidity Rainfall Rate (Hourly)
00:01 70.7 °F 63.0 °F 30.09 in Calm   1.0 mph 77 % 0.00 in
00:16 70.4 °F 63.0 °F 30.09 in Calm   2.0 mph 78 % 0.00 in
00:31 70.1 °F 63.0 °F 30.09 in NNE 1.0 mph 4.0 mph 78 % 0.00 in
00:46 69.9 °F 63.0 °F 30.09 in Calm   4.0 mph 78 % 0.00 in
01:01 69.7 °F 63.0 °F 30.08 in Calm     79 % 0.00 in
01:16 69.2 °F 63.0 °F 30.08 in Calm   2.0 mph 80 % 0.00 in
01:31 68.7 °F 62.0 °F 30.09 in Calm   2.0 mph 80 % 0.00 in
01:46 68.4 °F 62.0 °F 30.09 in Calm   1.0 mph 81 % 0.00 in
02:01 67.9 °F 62.0 °F 30.09 in Calm   3.0 mph 81 % 0.00 in
02:16 67.5 °F 62.0 °F 30.09 in ENE 2.0 mph 2.0 mph 81 % 0.00 in
02:31 67.0 °F 61.0 °F 30.09 in Calm   3.0 mph 81 % 0.00 in
02:46 66.7 °F 61.0 °F 30.09 in Calm   1.0 mph 81 % 0.00 in
03:01 66.3 °F 61.0 °F 30.09 in NE 2.0 mph 3.0 mph 82 % 0.00 in
03:17 66.0 °F 60.0 °F 30.10 in Calm   1.0 mph 82 % 0.00 in
03:31 65.7 °F 60.0 °F 30.09 in Calm   3.0 mph 82 % 0.00 in
03:46 65.4 °F 60.0 °F 30.10 in Calm   1.0 mph 82 % 0.00 in
04:01 65.1 °F 60.0 °F 30.10 in Calm     83 % 0.00 in
04:16 64.7 °F 59.0 °F 30.10 in Calm     83 % 0.00 in
04:31 64.4 °F 60.0 °F 30.11 in Calm     84 % 0.00 in
04:46 64.0 °F 60.0 °F 30.11 in Calm     85 % 0.00 in
05:01 63.7 °F 59.0 °F 30.11 in Calm     85 % 0.00 in
05:17 63.3 °F 59.0 °F 30.12 in Calm     86 % 0.00 in
05:32 63.0 °F 59.0 °F 30.12 in Calm     86 % 0.00 in
05:47 62.7 °F 59.0 °F 30.12 in Calm     87 % 0.00 in
06:02 62.4 °F 59.0 °F 30.12 in Calm     88 % 0.00 in
06:17 62.2 °F 59.0 °F 30.12 in Calm   2.0 mph 88 % 0.00 in
06:32 62.2 °F 59.0 °F 30.12 in Calm   3.0 mph 88 % 0.00 in
06:47 62.4 °F 59.0 °F 30.12 in Calm   3.0 mph 88 % 0.00 in
07:02 62.7 °F 59.0 °F 30.13 in Calm   3.0 mph 88 % 0.00 in
07:17 63.2 °F 59.0 °F 30.13 in ENE 2.0 mph 4.0 mph 87 % 0.00 in
07:32 63.9 °F 59.0 °F 30.13 in Calm   3.0 mph 85 % 0.00 in
07:47 64.4 °F 60.0 °F 30.14 in ENE 1.0 mph 3.0 mph 84 % 0.00 in
08:02 65.1 °F 60.0 °F 30.14 in NNE 3.0 mph 6.0 mph 82 % 0.00 in
08:17 65.7 °F 59.0 °F 30.14 in Calm   6.0 mph 79 % 0.00 in
08:32 66.3 °F 59.0 °F 30.14 in NNE 1.0 mph 5.0 mph 78 % 0.00 in
08:47 67.1 °F 59.0 °F 30.14 in Calm   5.0 mph 75 % 0.00 in
09:02 67.8 °F 59.0 °F 30.14 in Calm   4.0 mph 73 % 0.00 in
09:17 68.5 °F 59.0 °F 30.15 in Calm   5.0 mph 71 % 0.00 in
09:32 69.0 °F 59.0 °F 30.15 in Calm   4.0 mph 70 % 0.00 in
09:47 69.7 °F 59.0 °F 30.14 in NE 2.0 mph 4.0 mph 68 % 0.00 in
10:02 70.2 °F 59.0 °F 30.14 in SSE 1.0 mph 7.0 mph 68 % 0.00 in
10:17 70.8 °F 59.0 °F 30.14 in ENE 2.0 mph 3.0 mph 67 % 0.00 in
10:32 71.6 °F 60.0 °F 30.14 in ENE 1.0 mph 3.0 mph 66 % 0.00 in
10:47 72.4 °F 60.0 °F 30.14 in ENE 3.0 mph 4.0 mph 65 % 0.00 in
11:02 73.9 °F 60.0 °F 30.14 in East 1.0 mph 3.0 mph 63 % 0.00 in
11:17 74.9 °F 61.0 °F 30.14 in North 1.0 mph 5.0 mph 62 % 0.00 in
11:32 76.0 °F 61.0 °F 30.14 in Calm   4.0 mph 60 % 0.00 in
11:47 77.2 °F 62.0 °F 30.14 in ENE 2.0 mph 3.0 mph 60 % 0.00 in
12:03 77.8 °F 62.0 °F 30.13 in ENE 3.0 mph 5.0 mph 58 % 0.00 in
12:18 78.2 °F 62.0 °F 30.13 in Calm   8.0 mph 58 % 0.00 in
12:33 79.2 °F 63.0 °F 30.13 in NNW 1.0 mph 4.0 mph 57 % 0.00 in
12:48 79.7 °F 62.0 °F 30.12 in Calm   5.0 mph 55 % 0.00 in
13:03 79.8 °F 64.0 °F 30.12 in Calm   3.0 mph 58 % 0.00 in
13:18 79.3 °F 63.0 °F 30.12 in Calm   6.0 mph 57 % 0.00 in
13:33 80.2 °F 65.0 °F 30.12 in NNW 2.0 mph 5.0 mph 61 % 0.00 in
13:48 80.7 °F 64.0 °F 30.12 in ENE 2.0 mph 4.0 mph 57 % 0.00 in
14:03 80.3 °F 64.0 °F 30.11 in Calm   6.0 mph 58 % 0.00 in
14:18 80.9 °F 64.0 °F 30.11 in Calm   6.0 mph 57 % 0.00 in
14:33 81.1 °F 63.0 °F 30.11 in Calm   6.0 mph 55 % 0.00 in
14:48 81.8 °F 65.0 °F 30.11 in Calm   6.0 mph 56 % 0.00 in
15:03 82.1 °F 66.0 °F 30.10 in Calm   4.0 mph 58 % 0.00 in
15:18 82.9 °F 67.0 °F 30.10 in Calm   6.0 mph 59 % 0.00 in
15:33 83.2 °F 65.0 °F 30.10 in Calm   5.0 mph 55 % 0.00 in
15:48 83.6 °F 66.0 °F 30.10 in NE 1.0 mph 5.0 mph 56 % 0.00 in
16:03 84.0 °F 67.0 °F 30.09 in NNW 4.0 mph 4.0 mph 57 % 0.00 in
16:18 83.8 °F 66.0 °F 30.09 in Calm   4.0 mph 56 % 0.00 in
16:33 84.3 °F 67.0 °F 30.09 in Calm   3.0 mph 57 % 0.00 in
16:48 84.1 °F 67.0 °F 30.09 in WSW 3.0 mph 4.0 mph 57 % 0.00 in
17:03 84.1 °F 67.0 °F 30.09 in Calm   4.0 mph 56 % 0.00 in
17:18 84.0 °F 67.0 °F 30.08 in Calm   4.0 mph 56 % 0.00 in
17:33 84.1 °F 66.0 °F 30.08 in Calm   4.0 mph 55 % 0.00 in
17:48 83.4 °F 66.0 °F 30.08 in Calm   4.0 mph 56 % 0.00 in
18:03 82.7 °F 66.0 °F 30.08 in Calm   4.0 mph 58 % 0.00 in
18:18 82.8 °F 68.0 °F 30.07 in Calm   2.0 mph 61 % 0.00 in
18:33 82.2 °F 67.0 °F 30.07 in NNE 1.0 mph 4.0 mph 60 % 0.00 in
18:48 81.6 °F 67.0 °F 30.07 in Calm   4.0 mph 61 % 0.00 in
19:03 81.0 °F 66.0 °F 30.07 in Calm   3.0 mph 61 % 0.00 in
19:18 80.3 °F 67.0 °F 30.06 in Calm   3.0 mph 63 % 0.00 in
19:33 79.8 °F 67.0 °F 30.07 in ENE 1.0 mph 3.0 mph 64 % 0.00 in
19:48 79.4 °F 66.0 °F 30.06 in Calm   2.0 mph 64 % 0.00 in
20:03 79.2 °F 66.0 °F 30.06 in Calm   1.0 mph 65 % 0.00 in
20:19 78.7 °F 66.0 °F 30.07 in Calm   4.0 mph 66 % 0.00 in
20:34 78.2 °F 66.0 °F 30.07 in Calm     67 % 0.00 in
20:48 77.6 °F 66.0 °F 30.07 in Calm   1.0 mph 67 % 0.00 in
21:03 76.9 °F 66.0 °F 30.07 in Calm     68 % 0.00 in
21:18 76.2 °F 65.0 °F 30.07 in Calm     69 % 0.00 in
21:33 75.5 °F 65.0 °F 30.08 in Calm     70 % 0.00 in
21:49 74.8 °F 64.0 °F 30.08 in Calm     70 % 0.00 in
22:03 74.1 °F 65.0 °F 30.08 in NE 1.0 mph 2.0 mph 72 % 0.00 in
22:19 73.7 °F 64.0 °F 30.08 in ESE 5.0 mph 5.0 mph 72 % 0.00 in
22:33 73.5 °F 64.0 °F 30.08 in East 2.0 mph 5.0 mph 72 % 0.00 in
22:49 73.3 °F 64.0 °F 30.08 in Calm   3.0 mph 72 % 0.00 in
23:04 73.1 °F 63.0 °F 30.09 in Calm   3.0 mph 71 % 0.00 in
23:19 72.9 °F 63.0 °F 30.09 in Calm   2.0 mph 72 % 0.00 in
23:34 72.5 °F 63.0 °F 30.10 in Calm   1.0 mph 73 % 0.00 in
23:49 72.2 °F 64.0 °F 30.10 in Calm   2.0 mph 74 % 0.00 in
Des Moines Weather and Climate
Compliments of Weather Underground - 3 mb

Script developed by  Jim McMurry - jmcmurry@mwt.net Adapted for the template by  Wim van der Kuil - Leuven-Template.eu

You find our weather info also at:

Weather Underground

Equipment we use:

Weather-station
Davis VP2 Plus

Weather-program
Davis Weatherlink.Com

Weather-server
iMac (Retina 4K, 21.5-inch, Late 2015)

Provider
Hostmonster.com

Davis VP2 Plus

Davis Weatherlink.Com

iMac (Retina 4K, 21.5-inch, Late 2015)

Hostmonster.com